メインページ
METAR-TAF:

METAR-TAF

空港 :

石見空港

萩, 日本

緯度: 34-40N, 経度: 131-48E, 海抜: 54m

現時点の気象観測

当レポートは1時間13分前の07:00(UTC)に作成
北西の風 8kt
気温 17°C
湿度 77%
気圧 1007 hPa
視程10km以上
高度1500ftの雲はほとんどない
高度3000ftの雲は散在している

METAR: RJOW 240700Z 31008KT 9999 FEW015 SCT030 17/13 Q1007

時間: 17:13 (08:13 UTC)


TAF: 見つかりません

4,000以上の空港の気象観測と天気予報(METAR報とTAF報)

利用可能な観測所は地図上に黄色い丸と赤い丸で示す。

丸の上にカーソルを重ねると観測所名を参照できる。

次にクリックすると気象観測と天気予報を参照できる。

マップの切り替え:黒色「×」印の緑ボタンをクリックして拡大、「-」印の緑ボタンをクリックして縮小、緑色の三角印をクリックして隣りの地図に切り替え


METAR-TAF: